LFST/SXB METAR and TAF weather

Enter ICAO airport designator
Station Type Date Time Source
LFST METAR 2022/06/30 13:00 UTC NOAA

LFST 301300Z AUTO 14006KT 080V200 CAVOK 30/15 Q1010 TEMPO 25020G40KT 1500 TSRAGS FEW050CB


Station Type Date Time Source
LFST Decoded METAR 2022/06/30 13:00 UTC NOAA

Strasbourg, France (LFST) 48-33N 007-38E 154M
Jun 30, 2022 - 09:00 AM EDT / 2022.06.30 1300 UTC
Wind: from the SE (140 degrees) at 7 MPH (6 KT) (direction variable):0
Visibility: greater than 7 mile(s):0
Weather: Cumulonimbus clouds observed
Temperature: 86 F (30 C)
Dew Point: 59 F (15 C)
Relative Humidity: 40%
Pressure (altimeter): 29.83 in. Hg (1010 hPa)
ob: LFST 301300Z AUTO 14006KT 080V200 CAVOK 30/15 Q1010 TEMPO 25020G40KT 1500 TSRAGS FEW050CB
cycle: 13

Station Type Date Time Source
LFST TAF 2022/06/30 12:22 UTC NOAA

TAF LFST 301100Z 3012/0112 VRB03KT CAVOK
TEMPO 3014/3021 25015G25KT 4000 SHRA FEW050CB PROB40
TEMPO 3014/3017 25020G40KT 1500 TSRAGS PROB40
TEMPO 3021/0112 SHRA SCT040TCU

Example: see airport list